createdAt,value
2023-05-18T00:00:43.214Z,23.28
2023-05-18T00:01:43.245Z,23.28
2023-05-18T00:02:43.342Z,23.28
2023-05-18T00:03:43.422Z,23.29
2023-05-18T00:04:43.411Z,23.28
2023-05-18T00:05:43.387Z,23.26
2023-05-18T00:06:43.320Z,23.31
2023-05-18T00:07:44.755Z,23.28
2023-05-18T00:08:43.354Z,23.28
2023-05-18T00:09:43.381Z,23.29
2023-05-18T00:10:43.391Z,23.28
2023-05-18T00:11:43.405Z,23.26
2023-05-18T00:12:43.438Z,23.26
2023-05-18T00:13:43.442Z,23.28
2023-05-18T00:14:43.476Z,23.28
2023-05-18T00:15:43.474Z,23.25
2023-05-18T00:16:43.501Z,23.26
2023-05-18T00:17:43.527Z,23.28
2023-05-18T00:18:43.546Z,23.29
2023-05-18T00:19:43.541Z,23.28
2023-05-18T00:20:43.562Z,23.31
2023-05-18T00:21:43.557Z,23.28
2023-05-18T00:22:43.560Z,23.28
2023-05-18T00:23:43.587Z,23.26
2023-05-18T00:24:43.598Z,23.28
2023-05-18T00:25:43.624Z,23.28
2023-05-18T00:26:43.633Z,23.26
2023-05-18T00:27:43.652Z,23.26
2023-05-18T00:28:43.681Z,23.28
2023-05-18T00:29:43.722Z,23.23
2023-05-18T00:30:43.722Z,23.26
2023-05-18T00:31:43.756Z,23.26
2023-05-18T00:32:43.778Z,23.28
2023-05-18T00:33:43.781Z,23.28
2023-05-18T00:34:43.800Z,23.26
2023-05-18T00:35:43.825Z,23.28
2023-05-18T00:36:43.843Z,23.26
2023-05-18T00:37:43.853Z,23.25
2023-05-18T00:38:43.883Z,23.23
2023-05-18T00:39:43.908Z,23.26
2023-05-18T00:40:43.940Z,23.25
2023-05-18T00:41:43.947Z,23.25
2023-05-18T00:42:43.981Z,23.28
2023-05-18T00:43:43.976Z,23.26
2023-05-18T00:44:44.005Z,23.25
2023-05-18T00:45:44.064Z,23.26
2023-05-18T00:46:44.046Z,23.28
2023-05-18T00:47:44.074Z,23.23
2023-05-18T00:48:44.098Z,23.26
2023-05-18T00:49:44.100Z,23.25
2023-05-18T00:50:44.122Z,23.25
2023-05-18T00:51:44.133Z,23.23
2023-05-18T00:52:44.164Z,23.23
2023-05-18T00:53:44.384Z,23.23
2023-05-18T00:54:44.201Z,23.23
2023-05-18T00:55:44.204Z,23.23
2023-05-18T00:56:44.226Z,23.23
2023-05-18T00:57:44.247Z,23.23
2023-05-18T00:58:44.266Z,23.22
2023-05-18T00:59:44.293Z,23.22
2023-05-18T01:00:44.349Z,23.23
2023-05-18T01:01:44.372Z,23.22
2023-05-18T01:02:44.407Z,23.23
2023-05-18T01:03:44.372Z,23.22
2023-05-18T01:04:44.399Z,23.22
2023-05-18T01:05:44.410Z,23.22
2023-05-18T01:06:44.435Z,23.21
2023-05-18T01:07:44.487Z,23.23
2023-05-18T01:08:44.480Z,23.23
2023-05-18T01:09:44.508Z,23.22
2023-05-18T01:10:44.523Z,23.22
2023-05-18T01:11:44.564Z,23.21
2023-05-18T01:12:44.587Z,23.22
2023-05-18T01:13:44.599Z,23.23
2023-05-18T01:14:44.621Z,23.22
2023-05-18T01:15:44.642Z,23.21
2023-05-18T01:16:44.684Z,23.23
2023-05-18T01:17:44.707Z,23.23
2023-05-18T01:18:44.791Z,23.22
2023-05-18T01:19:44.727Z,23.21
2023-05-18T01:20:44.755Z,23.19
2023-05-18T01:21:44.770Z,23.21
2023-05-18T01:22:44.800Z,23.21
2023-05-18T01:23:44.851Z,23.19
2023-05-18T01:24:44.888Z,23.22
2023-05-18T01:25:44.860Z,23.19
2023-05-18T01:26:44.890Z,23.21
2023-05-18T01:27:44.897Z,23.21
2023-05-18T01:28:44.920Z,23.21
2023-05-18T01:29:45.019Z,23.19
2023-05-18T01:30:45.023Z,23.21
2023-05-18T01:31:45.000Z,23.22
2023-05-18T01:32:45.060Z,23.21
2023-05-18T01:33:45.071Z,23.18
2023-05-18T01:34:45.061Z,23.21
2023-05-18T01:35:45.081Z,23.22
2023-05-18T01:36:45.059Z,23.21
2023-05-18T01:37:45.091Z,23.19
2023-05-18T01:38:45.061Z,23.19
2023-05-18T01:39:45.090Z,23.18
2023-05-18T01:40:45.069Z,23.21
2023-05-18T01:41:45.083Z,23.19
2023-05-18T01:42:45.085Z,23.21
2023-05-18T01:43:45.099Z,23.21
2023-05-18T01:44:45.105Z,23.19
2023-05-18T01:45:45.105Z,23.21
2023-05-18T01:46:45.265Z,23.21
2023-05-18T01:47:45.198Z,23.19
2023-05-18T01:48:45.104Z,23.18
2023-05-18T01:49:45.101Z,23.19
2023-05-18T01:50:45.098Z,23.17
2023-05-18T01:51:45.105Z,23.21
2023-05-18T01:52:45.101Z,23.21
2023-05-18T01:53:45.112Z,23.18
2023-05-18T01:54:45.132Z,23.19
2023-05-18T01:55:45.129Z,23.17
2023-05-18T01:56:45.129Z,23.17
2023-05-18T01:57:45.151Z,23.18
2023-05-18T01:58:45.129Z,23.15
2023-05-18T01:59:45.145Z,23.18
2023-05-18T02:00:45.146Z,23.17
2023-05-18T02:01:45.215Z,23.15
2023-05-18T02:02:45.260Z,23.18
2023-05-18T02:03:45.285Z,23.19
2023-05-18T02:04:45.157Z,23.18
2023-05-18T02:05:45.163Z,23.19
2023-05-18T02:06:45.150Z,23.17
2023-05-18T02:07:45.163Z,23.21
2023-05-18T02:08:45.163Z,23.15
2023-05-18T02:09:45.168Z,23.18
2023-05-18T02:10:45.164Z,23.18
2023-05-18T02:11:45.165Z,23.19
2023-05-18T02:12:45.170Z,23.18
2023-05-18T02:13:45.189Z,23.17
2023-05-18T02:14:45.228Z,23.17
2023-05-18T02:15:45.180Z,23.17
2023-05-18T02:16:45.248Z,23.17
2023-05-18T02:17:45.270Z,23.17
2023-05-18T02:18:45.214Z,23.18
2023-05-18T02:19:45.211Z,23.18
2023-05-18T02:20:45.238Z,23.17
2023-05-18T02:21:45.232Z,23.15
2023-05-18T02:22:45.230Z,23.17
2023-05-18T02:23:45.253Z,23.15
2023-05-18T02:24:45.251Z,23.15
2023-05-18T02:25:45.254Z,23.19
2023-05-18T02:26:45.255Z,23.18
2023-05-18T02:27:45.263Z,23.14
2023-05-18T02:28:45.275Z,23.17
2023-05-18T02:29:45.294Z,23.17
2023-05-18T02:30:45.282Z,23.14
2023-05-18T02:31:45.292Z,23.14
2023-05-18T02:32:45.330Z,23.14
2023-05-18T02:33:45.299Z,23.14
2023-05-18T02:34:45.296Z,23.17
2023-05-18T02:35:45.308Z,23.15
2023-05-18T02:36:45.302Z,23.12
2023-05-18T02:37:45.305Z,23.14
2023-05-18T02:38:45.316Z,23.14
2023-05-18T02:39:45.325Z,23.15
2023-05-18T02:40:45.324Z,23.10
2023-05-18T02:41:45.333Z,23.14
2023-05-18T02:42:45.374Z,23.11
2023-05-18T02:43:45.393Z,23.17
2023-05-18T02:44:45.415Z,23.12
2023-05-18T02:45:45.461Z,23.14
2023-05-18T02:46:45.479Z,23.14
2023-05-18T02:47:45.512Z,23.14
2023-05-18T02:48:45.521Z,23.14
2023-05-18T02:49:45.555Z,23.15
2023-05-18T02:50:46.176Z,23.12
2023-05-18T02:51:45.610Z,23.12
2023-05-18T02:52:45.602Z,23.15
2023-05-18T02:53:45.607Z,23.14
2023-05-18T02:54:45.698Z,23.15
2023-05-18T02:55:45.629Z,23.14
2023-05-18T02:56:45.623Z,23.14
2023-05-18T02:57:45.642Z,23.12
2023-05-18T02:58:45.663Z,23.14
2023-05-18T02:59:45.659Z,23.14
2023-05-18T03:00:45.641Z,23.12
2023-05-18T03:01:45.773Z,23.12
2023-05-18T03:02:45.739Z,23.12
2023-05-18T03:03:45.716Z,23.12
2023-05-18T03:04:46.975Z,23.12
2023-05-18T03:05:45.684Z,23.15
2023-05-18T03:06:45.727Z,23.12
2023-05-18T03:07:45.732Z,23.12
2023-05-18T03:08:45.751Z,23.11
2023-05-18T03:09:45.813Z,23.12
2023-05-18T03:10:45.810Z,23.14
2023-05-18T03:11:45.849Z,23.11
2023-05-18T03:12:45.862Z,23.12
2023-05-18T03:13:45.892Z,23.10
2023-05-18T03:14:45.925Z,23.14
2023-05-18T03:15:45.958Z,23.12
2023-05-18T03:16:46.022Z,23.11
2023-05-18T03:17:46.044Z,23.11
2023-05-18T03:18:46.143Z,23.15
2023-05-18T03:19:46.070Z,23.10
2023-05-18T03:20:46.102Z,23.11
2023-05-18T03:21:46.135Z,23.11
2023-05-18T03:22:46.157Z,23.11
2023-05-18T03:23:46.188Z,23.11
2023-05-18T03:24:46.220Z,23.11
2023-05-18T03:25:46.254Z,23.11
2023-05-18T03:26:46.275Z,23.10
2023-05-18T03:27:46.290Z,23.11
2023-05-18T03:28:46.327Z,23.08
2023-05-18T03:29:46.365Z,23.10
2023-05-18T03:30:46.406Z,23.08
2023-05-18T03:31:46.436Z,23.11
2023-05-18T03:32:46.484Z,23.11
2023-05-18T03:33:46.464Z,23.12
2023-05-18T03:34:46.476Z,23.10
2023-05-18T03:35:48.384Z,23.10
2023-05-18T03:36:46.476Z,23.10
2023-05-18T03:37:46.482Z,23.10
2023-05-18T03:38:46.488Z,23.10
2023-05-18T03:39:46.569Z,23.08
2023-05-18T03:40:46.514Z,23.07
2023-05-18T03:41:46.505Z,23.10
2023-05-18T03:42:46.517Z,23.10
2023-05-18T03:43:46.518Z,23.11
2023-05-18T03:44:46.531Z,23.10
2023-05-18T03:45:46.549Z,23.11
2023-05-18T03:46:46.605Z,23.10
2023-05-18T03:47:46.635Z,23.10
2023-05-18T03:48:46.549Z,23.10
2023-05-18T03:49:46.571Z,23.11
2023-05-18T03:50:46.577Z,23.10
2023-05-18T03:51:46.573Z,23.10
2023-05-18T03:52:46.577Z,23.10
2023-05-18T03:53:46.576Z,23.08
2023-05-18T03:54:46.612Z,23.11
2023-05-18T03:55:46.658Z,23.10
2023-05-18T03:56:46.602Z,23.10
2023-05-18T03:57:46.612Z,23.08
2023-05-18T03:58:46.614Z,23.10
2023-05-18T03:59:46.626Z,23.08
2023-05-18T04:00:46.663Z,23.11
2023-05-18T04:01:46.692Z,23.10
2023-05-18T04:02:46.720Z,23.07
2023-05-18T04:03:46.727Z,23.07
2023-05-18T04:04:46.658Z,23.08
2023-05-18T04:05:46.669Z,23.10
2023-05-18T04:06:46.657Z,23.07
2023-05-18T04:07:46.779Z,23.10
2023-05-18T04:08:46.668Z,23.10
2023-05-18T04:09:46.685Z,23.10
2023-05-18T04:10:46.674Z,23.08
2023-05-18T04:11:46.671Z,23.08
2023-05-18T04:12:46.675Z,23.08
2023-05-18T04:13:46.679Z,23.08
2023-05-18T04:14:46.704Z,23.08
2023-05-18T04:15:46.686Z,23.07
2023-05-18T04:16:46.880Z,23.07
2023-05-18T04:17:46.737Z,23.08
2023-05-18T04:18:46.894Z,23.10
2023-05-18T04:19:46.711Z,23.07
2023-05-18T04:20:46.726Z,23.08
2023-05-18T04:21:46.755Z,23.08
2023-05-18T04:22:46.953Z,23.07
2023-05-18T04:23:46.752Z,23.08
2023-05-18T04:24:46.754Z,23.11
2023-05-18T04:25:46.743Z,23.08
2023-05-18T04:26:46.762Z,23.08
2023-05-18T04:27:47.851Z,23.05
2023-05-18T04:28:46.760Z,23.05
2023-05-18T04:29:46.767Z,23.08
2023-05-18T04:30:46.767Z,23.08
2023-05-18T04:31:46.815Z,23.08
2023-05-18T04:32:46.808Z,23.07
2023-05-18T04:33:46.814Z,23.07
2023-05-18T04:34:46.832Z,23.07
2023-05-18T04:35:46.816Z,23.08
2023-05-18T04:36:46.880Z,23.07
2023-05-18T04:37:46.841Z,23.07
2023-05-18T04:38:46.851Z,23.10
2023-05-18T04:39:46.889Z,23.08
2023-05-18T04:40:46.881Z,23.08
2023-05-18T04:41:46.886Z,23.10
2023-05-18T04:42:46.884Z,23.08
2023-05-18T04:43:46.888Z,23.10
2023-05-18T04:44:46.904Z,23.08
2023-05-18T04:45:46.957Z,23.10
2023-05-18T04:46:46.928Z,23.07
2023-05-18T04:47:47.193Z,23.07
2023-05-18T04:48:46.941Z,23.07
2023-05-18T04:49:46.941Z,23.07
2023-05-18T04:50:46.981Z,23.10
2023-05-18T04:51:46.973Z,23.07
2023-05-18T04:52:46.971Z,23.08
2023-05-18T04:53:46.982Z,23.08
2023-05-18T04:54:47.013Z,23.07
2023-05-18T04:55:46.991Z,23.10
2023-05-18T04:56:47.005Z,23.08
2023-05-18T04:57:47.023Z,23.08
2023-05-18T04:58:47.063Z,23.07
2023-05-18T04:59:47.053Z,23.10
2023-05-18T05:00:47.090Z,23.08
2023-05-18T05:01:47.245Z,23.08
2023-05-18T05:02:47.184Z,23.08
2023-05-18T05:03:47.235Z,23.08
2023-05-18T05:04:47.152Z,23.10
2023-05-18T05:05:47.155Z,23.11
2023-05-18T05:06:47.168Z,23.11
2023-05-18T05:07:47.210Z,23.11
2023-05-18T05:08:47.203Z,23.08
2023-05-18T05:09:47.205Z,23.08
2023-05-18T05:10:47.208Z,23.10
2023-05-18T05:11:47.231Z,23.07
2023-05-18T05:12:49.324Z,23.08
2023-05-18T05:13:47.240Z,23.10
2023-05-18T05:14:47.306Z,23.11
2023-05-18T05:15:47.317Z,23.11
2023-05-18T05:16:47.298Z,23.10
2023-05-18T05:17:47.385Z,23.12
2023-05-18T05:18:47.543Z,23.12
2023-05-18T05:19:47.378Z,23.10
2023-05-18T05:20:47.410Z,23.12
2023-05-18T05:21:47.429Z,23.12
2023-05-18T05:22:47.628Z,23.12
2023-05-18T05:23:47.487Z,23.14
2023-05-18T05:24:47.505Z,23.12
2023-05-18T05:25:47.532Z,23.11
2023-05-18T05:26:47.570Z,23.12
2023-05-18T05:27:47.606Z,23.11
2023-05-18T05:28:47.627Z,23.14
2023-05-18T05:29:47.659Z,23.12
2023-05-18T05:30:47.687Z,23.11
2023-05-18T05:31:47.757Z,23.11
2023-05-18T05:32:47.776Z,23.14
2023-05-18T05:33:47.773Z,23.12
2023-05-18T05:34:47.817Z,23.15
2023-05-18T05:35:47.827Z,23.15
2023-05-18T05:36:47.872Z,23.14
2023-05-18T05:37:47.896Z,23.14
2023-05-18T05:38:47.919Z,23.14
2023-05-18T05:39:47.956Z,23.15
2023-05-18T05:40:47.974Z,23.15
2023-05-18T05:41:48.000Z,23.15
2023-05-18T05:42:48.032Z,23.15
2023-05-18T05:43:48.058Z,23.17
2023-05-18T05:44:48.092Z,23.14
2023-05-18T05:45:48.137Z,23.14
2023-05-18T05:46:48.264Z,23.17
2023-05-18T05:47:48.211Z,23.18
2023-05-18T05:48:48.196Z,23.17
2023-05-18T05:49:48.279Z,23.18
2023-05-18T05:50:48.266Z,23.17
2023-05-18T05:51:48.268Z,23.15
2023-05-18T05:52:48.299Z,23.18
2023-05-18T05:53:48.337Z,23.15
2023-05-18T05:54:48.384Z,23.18
2023-05-18T05:55:48.404Z,23.18
2023-05-18T05:56:48.410Z,23.18
2023-05-18T05:57:48.469Z,23.19
2023-05-18T05:58:48.473Z,23.18
2023-05-18T05:59:48.485Z,23.18
2023-05-18T06:00:48.519Z,23.17
2023-05-18T06:01:48.648Z,23.19
2023-05-18T06:02:48.707Z,23.22
2023-05-18T06:03:48.587Z,23.18
2023-05-18T06:04:48.751Z,23.21
2023-05-18T06:05:48.633Z,23.19
2023-05-18T06:06:48.632Z,23.21
2023-05-18T06:07:48.653Z,23.21
2023-05-18T06:08:48.701Z,23.21
2023-05-18T06:09:48.709Z,23.22
2023-05-18T06:10:48.748Z,23.22
2023-05-18T06:11:48.771Z,23.22
2023-05-18T06:12:48.783Z,23.22
2023-05-18T06:13:48.825Z,23.22
2023-05-18T06:14:48.845Z,23.22
2023-05-18T06:15:48.879Z,23.25
2023-05-18T06:16:48.909Z,23.25
2023-05-18T06:17:48.945Z,23.25
2023-05-18T06:18:48.965Z,23.26
2023-05-18T06:19:48.959Z,23.26
2023-05-18T06:20:48.988Z,23.28
2023-05-18T06:21:48.996Z,23.25
2023-05-18T06:22:49.027Z,23.28
2023-05-18T06:23:49.047Z,23.28
2023-05-18T06:24:49.059Z,23.28
2023-05-18T06:25:49.059Z,23.28
2023-05-18T06:26:49.095Z,23.26
2023-05-18T06:27:49.111Z,23.31
2023-05-18T06:28:49.136Z,23.31
2023-05-18T06:29:49.172Z,23.31
2023-05-18T06:30:49.176Z,23.32
2023-05-18T06:31:49.280Z,23.31
2023-05-18T06:32:49.273Z,23.32
2023-05-18T06:33:49.229Z,23.32
2023-05-18T06:34:49.235Z,23.33
2023-05-18T06:35:49.231Z,23.31
2023-05-18T06:36:49.231Z,23.31
2023-05-18T06:37:49.228Z,23.35
2023-05-18T06:38:49.265Z,23.35
2023-05-18T06:39:49.263Z,23.32
2023-05-18T06:40:49.254Z,23.33
2023-05-18T06:41:49.263Z,23.37
2023-05-18T06:42:49.299Z,23.33
2023-05-18T06:43:49.331Z,23.35
2023-05-18T06:44:49.308Z,23.37
2023-05-18T06:45:49.349Z,23.37
2023-05-18T06:46:49.322Z,23.35
2023-05-18T06:47:49.344Z,23.39
2023-05-18T06:48:49.311Z,23.39
2023-05-18T06:49:49.311Z,23.38
2023-05-18T06:50:49.317Z,23.38
2023-05-18T06:51:49.321Z,23.41
2023-05-18T06:52:49.345Z,23.39
2023-05-18T06:53:49.359Z,23.39
2023-05-18T06:54:49.381Z,23.42
2023-05-18T06:55:49.389Z,23.39
2023-05-18T06:56:49.364Z,23.41
2023-05-18T06:57:49.408Z,23.41
2023-05-18T06:58:49.370Z,23.41
2023-05-18T06:59:49.387Z,23.39
2023-05-18T07:00:49.375Z,23.44
2023-05-18T07:01:49.548Z,23.42
2023-05-18T07:02:49.450Z,23.42
2023-05-18T07:03:49.449Z,23.42
2023-05-18T07:04:49.411Z,23.46
2023-05-18T07:05:49.419Z,23.44
2023-05-18T07:06:49.416Z,23.45
2023-05-18T07:07:49.472Z,23.46
2023-05-18T07:08:49.412Z,23.48
2023-05-18T07:09:49.454Z,23.46
2023-05-18T07:10:49.422Z,23.48
2023-05-18T07:11:49.447Z,23.49
2023-05-18T07:12:49.458Z,23.48
2023-05-18T07:13:49.454Z,23.50
2023-05-18T07:14:49.453Z,23.50
2023-05-18T07:15:49.480Z,23.50
2023-05-18T07:16:49.455Z,23.52
2023-05-18T07:17:49.501Z,23.59
2023-05-18T07:18:49.490Z,23.62
2023-05-18T07:19:49.514Z,23.65
2023-05-18T07:20:49.455Z,23.66
2023-05-18T07:21:49.467Z,23.65
2023-05-18T07:22:49.471Z,23.67
2023-05-18T07:23:49.486Z,23.69
2023-05-18T07:24:49.474Z,23.67
2023-05-18T07:25:49.513Z,23.67
2023-05-18T07:26:49.467Z,23.67
2023-05-18T07:27:49.473Z,23.69
2023-05-18T07:28:49.482Z,23.67
2023-05-18T07:29:49.468Z,23.66
2023-05-18T07:30:49.480Z,23.67
2023-05-18T07:31:49.579Z,23.66
2023-05-18T07:32:49.504Z,23.65
2023-05-18T07:33:49.452Z,23.66
2023-05-18T07:34:49.516Z,23.65
2023-05-18T07:35:49.455Z,23.63
2023-05-18T07:36:49.470Z,23.66
2023-05-18T07:37:49.580Z,23.65
2023-05-18T07:38:49.469Z,23.65
2023-05-18T07:39:49.488Z,23.65
2023-05-18T07:40:49.466Z,23.65
2023-05-18T07:41:49.483Z,23.62
2023-05-18T07:42:49.469Z,23.63
2023-05-18T07:43:49.473Z,23.63
2023-05-18T07:44:49.560Z,23.62
2023-05-18T07:45:49.611Z,23.63
2023-05-18T07:46:49.680Z,23.63
2023-05-18T07:47:49.663Z,23.62
2023-05-18T07:48:49.720Z,23.63
2023-05-18T07:49:49.755Z,23.63
2023-05-18T07:50:49.813Z,23.59
2023-05-18T07:51:49.900Z,23.63
2023-05-18T07:52:49.956Z,23.62
2023-05-18T07:53:49.980Z,23.59
2023-05-18T07:54:50.056Z,23.65
2023-05-18T07:55:50.082Z,23.62
2023-05-18T07:56:50.107Z,23.63
2023-05-18T07:57:50.174Z,23.62
2023-05-18T07:58:50.203Z,23.60
2023-05-18T07:59:50.243Z,23.59
2023-05-18T08:00:50.281Z,23.62
2023-05-18T08:01:50.400Z,23.62
2023-05-18T08:02:50.547Z,23.62
2023-05-18T08:03:50.516Z,23.63
2023-05-18T08:04:50.565Z,23.60
2023-05-18T08:05:50.603Z,23.62
2023-05-18T08:06:50.663Z,23.60
2023-05-18T08:07:50.705Z,23.62
2023-05-18T08:08:50.725Z,23.60
2023-05-18T08:09:50.802Z,23.60
2023-05-18T08:10:50.839Z,23.62
2023-05-18T08:11:50.878Z,23.59
2023-05-18T08:12:50.917Z,23.63
2023-05-18T08:13:50.952Z,23.62
2023-05-18T08:14:50.990Z,23.63
2023-05-18T08:15:59.165Z,23.62
2023-05-18T08:16:52.037Z,23.63
2023-05-18T08:17:51.058Z,23.63
2023-05-18T08:18:51.017Z,23.65
2023-05-18T08:19:50.993Z,23.66
2023-05-18T08:20:50.993Z,23.65
2023-05-18T08:21:50.992Z,23.63
2023-05-18T08:22:51.004Z,23.63
2023-05-18T08:23:51.004Z,23.59
2023-05-18T08:24:50.998Z,23.62
2023-05-18T08:25:51.015Z,23.60
2023-05-18T08:26:51.003Z,23.62
2023-05-18T08:27:51.361Z,23.62
2023-05-18T08:28:51.112Z,23.62
2023-05-18T08:29:51.194Z,23.62
2023-05-18T08:30:51.252Z,23.62
2023-05-18T08:31:51.350Z,23.60
2023-05-18T08:32:51.447Z,23.62
2023-05-18T08:33:52.276Z,23.63
2023-05-18T08:34:51.520Z,23.63
2023-05-18T08:35:51.591Z,23.63
2023-05-18T08:36:51.631Z,23.62
2023-05-18T08:37:51.699Z,23.60
2023-05-18T08:38:51.776Z,23.62
2023-05-18T08:39:51.851Z,23.63
2023-05-18T08:40:51.909Z,23.66
2023-05-18T08:41:51.995Z,23.65
2023-05-18T08:42:52.050Z,23.63
2023-05-18T08:43:52.094Z,23.63
2023-05-18T08:44:52.205Z,23.63
2023-05-18T08:45:52.260Z,23.63
2023-05-18T08:46:52.304Z,23.63
2023-05-18T08:47:52.454Z,23.62
2023-05-18T08:48:52.475Z,23.63
2023-05-18T08:49:52.515Z,23.62
2023-05-18T08:50:52.588Z,23.60
2023-05-18T08:51:52.647Z,23.63
2023-05-18T08:52:52.715Z,23.62
2023-05-18T08:53:52.816Z,23.62
2023-05-18T08:54:52.899Z,23.62
2023-05-18T08:55:52.927Z,23.59
2023-05-18T08:56:53.002Z,23.59
2023-05-18T08:57:53.064Z,23.58
2023-05-18T08:58:53.126Z,23.55
2023-05-18T08:59:53.193Z,23.59
2023-05-18T09:00:53.262Z,23.62
2023-05-18T09:01:53.387Z,23.63
2023-05-18T09:02:53.518Z,23.65
2023-05-18T09:03:53.463Z,23.66
2023-05-18T09:04:53.544Z,23.67
2023-05-18T09:05:53.626Z,23.70
2023-05-18T09:06:53.672Z,23.70
2023-05-18T09:07:53.761Z,23.72
2023-05-18T09:08:53.784Z,23.72
2023-05-18T09:09:53.855Z,23.76
2023-05-18T09:10:53.942Z,23.74
2023-05-18T09:11:54.026Z,23.76
2023-05-18T09:12:54.050Z,23.76
2023-05-18T09:13:54.178Z,23.77
2023-05-18T09:14:54.190Z,23.77
2023-05-18T09:15:54.295Z,23.79
2023-05-18T09:16:54.348Z,23.83
2023-05-18T09:17:54.386Z,23.83
2023-05-18T09:18:54.460Z,23.87
2023-05-18T09:19:54.493Z,23.84
2023-05-18T09:20:54.538Z,23.87
2023-05-18T09:21:54.582Z,23.90
2023-05-18T09:22:54.642Z,23.91
2023-05-18T09:23:54.724Z,23.90
2023-05-18T09:24:54.749Z,23.93
2023-05-18T09:25:54.808Z,23.93
2023-05-18T09:26:54.879Z,23.91
2023-05-18T09:27:54.909Z,23.91
2023-05-18T09:28:54.969Z,23.93
2023-05-18T09:29:55.028Z,23.94
2023-05-18T09:30:55.113Z,23.96
2023-05-18T09:31:55.146Z,23.96
2023-05-18T09:32:55.239Z,23.97
2023-05-18T09:33:55.262Z,23.97
2023-05-18T09:34:55.280Z,23.99
2023-05-18T09:35:55.326Z,24.00
2023-05-18T09:36:55.373Z,24.00
2023-05-18T09:37:55.429Z,24.03
2023-05-18T09:38:55.480Z,24.06
2023-05-18T09:39:55.525Z,24.08
2023-05-18T09:40:55.549Z,24.11
2023-05-18T09:41:55.630Z,24.13
2023-05-18T09:42:55.632Z,24.14
2023-05-18T09:43:55.717Z,24.14
2023-05-18T09:44:55.738Z,24.15
2023-05-18T09:45:55.802Z,24.20
2023-05-18T09:46:55.967Z,24.21
2023-05-18T09:47:55.886Z,24.21
2023-05-18T09:48:55.950Z,24.24
2023-05-18T09:49:55.913Z,24.27
2023-05-18T09:50:55.988Z,24.28
2023-05-18T09:51:56.051Z,24.28
2023-05-18T09:52:56.038Z,24.30
2023-05-18T09:53:56.068Z,24.31
2023-05-18T09:54:56.119Z,24.35
2023-05-18T09:55:56.152Z,24.34
2023-05-18T09:57:09.706Z,24.32
2023-05-18T09:57:57.184Z,24.32
2023-05-18T09:58:56.157Z,24.32
2023-05-18T09:59:56.159Z,24.34
2023-05-18T10:00:56.237Z,24.39
2023-05-18T10:01:56.163Z,24.39
2023-05-18T10:02:56.181Z,24.38
2023-05-18T10:03:56.190Z,24.39
2023-05-18T10:04:56.136Z,24.42
2023-05-18T10:05:56.179Z,24.41
2023-05-18T10:06:56.165Z,24.42
2023-05-18T10:07:56.121Z,24.41
2023-05-18T10:08:56.107Z,24.41
2023-05-18T10:09:56.151Z,24.36
2023-05-18T10:10:56.186Z,24.41
2023-05-18T10:11:56.228Z,24.44
2023-05-18T10:12:56.254Z,24.44
2023-05-18T10:13:56.309Z,24.45
2023-05-18T10:14:56.401Z,24.45
2023-05-18T10:15:56.357Z,24.47
2023-05-18T10:17:07.191Z,24.48
2023-05-18T10:17:57.436Z,24.50
2023-05-18T10:18:56.410Z,24.52
2023-05-18T10:19:56.387Z,24.48
2023-05-18T10:20:59.198Z,24.51
2023-05-18T10:21:56.368Z,24.48
2023-05-18T10:22:56.398Z,24.50
2023-05-18T10:23:56.398Z,24.50
2023-05-18T10:24:56.336Z,24.54
2023-05-18T10:25:56.339Z,24.52
2023-05-18T10:26:57.675Z,24.55
2023-05-18T10:27:56.310Z,24.55
2023-05-18T10:28:56.290Z,24.55
2023-05-18T10:29:56.277Z,24.56
2023-05-18T10:30:56.331Z,24.50
2023-05-18T10:31:56.262Z,24.50
2023-05-18T10:32:56.304Z,24.48
2023-05-18T10:33:56.248Z,24.50
2023-05-18T10:34:56.288Z,24.47
2023-05-18T10:35:56.449Z,24.48
2023-05-18T10:36:56.221Z,24.47
2023-05-18T10:37:56.206Z,24.51
2023-05-18T10:38:56.260Z,24.54
2023-05-18T10:39:56.231Z,24.54
2023-05-18T10:40:56.172Z,24.54
2023-05-18T10:41:56.177Z,24.56
2023-05-18T10:42:56.182Z,24.56
2023-05-18T10:43:56.143Z,24.61
2023-05-18T10:44:56.148Z,24.59
2023-05-18T10:45:56.217Z,24.58
2023-05-18T10:46:56.260Z,24.62
2023-05-18T10:47:56.200Z,24.64
2023-05-18T10:48:56.165Z,24.62
2023-05-18T10:49:56.123Z,24.62
2023-05-18T10:50:56.131Z,24.62
2023-05-18T10:51:56.101Z,24.64
2023-05-18T10:52:56.078Z,24.65
2023-05-18T10:53:56.447Z,24.64
2023-05-18T10:54:56.059Z,24.64
2023-05-18T10:55:56.051Z,24.65
2023-05-18T10:56:56.044Z,24.65
2023-05-18T10:57:56.018Z,24.65
2023-05-18T10:58:56.015Z,24.66
2023-05-18T10:59:55.990Z,24.66
2023-05-18T11:00:56.076Z,24.65
2023-05-18T11:01:56.072Z,24.65
2023-05-18T11:02:56.049Z,24.68
2023-05-18T11:03:55.952Z,24.65
2023-05-18T11:04:55.934Z,24.65
2023-05-18T11:05:55.928Z,24.66
2023-05-18T11:06:55.967Z,24.65
2023-05-18T11:07:55.899Z,24.68
2023-05-18T11:08:55.895Z,24.68
2023-05-18T11:09:55.867Z,24.69
2023-05-18T11:10:55.865Z,24.68
2023-05-18T11:11:55.930Z,24.71
2023-05-18T11:12:55.945Z,24.71
2023-05-18T11:13:55.965Z,24.72
2023-05-18T11:14:55.975Z,24.71
2023-05-18T11:15:56.014Z,24.71
2023-05-18T11:16:56.090Z,24.72
2023-05-18T11:17:56.048Z,24.71
2023-05-18T11:18:56.238Z,24.72
2023-05-18T11:19:56.051Z,24.72
2023-05-18T11:20:56.092Z,24.75
2023-05-18T11:21:56.093Z,24.71
2023-05-18T11:22:56.156Z,24.73
2023-05-18T11:23:56.146Z,24.72
2023-05-18T11:24:56.164Z,24.73
2023-05-18T11:25:56.165Z,24.75
2023-05-18T11:26:56.206Z,24.72
2023-05-18T11:27:56.197Z,24.73
2023-05-18T11:28:56.222Z,24.73
2023-05-18T11:30:14.189Z,24.73
2023-05-18T11:30:57.239Z,24.76
2023-05-18T11:31:56.254Z,24.73
2023-05-18T11:32:56.256Z,24.75
2023-05-18T11:33:56.176Z,24.73
2023-05-18T11:34:56.145Z,24.72
2023-05-18T11:35:56.143Z,24.75
2023-05-18T11:36:56.113Z,24.78
2023-05-18T11:37:56.079Z,24.75
2023-05-18T11:38:56.124Z,24.75
2023-05-18T11:40:00.063Z,24.75
2023-05-18T11:40:57.069Z,24.73
2023-05-18T11:41:56.049Z,24.73
2023-05-18T11:42:56.018Z,24.71
2023-05-18T11:43:56.012Z,24.72
2023-05-18T11:44:56.109Z,24.68
2023-05-18T11:45:58.753Z,24.72
2023-05-18T11:46:55.961Z,24.71
2023-05-18T11:47:56.020Z,24.66
2023-05-18T11:48:55.973Z,24.69
2023-05-18T11:49:55.927Z,24.75
2023-05-18T11:50:55.931Z,24.72
2023-05-18T11:51:58.442Z,24.71
2023-05-18T11:52:55.901Z,24.71
2023-05-18T11:53:55.864Z,24.68
2023-05-18T11:54:55.917Z,24.69
2023-05-18T11:55:55.886Z,24.69
2023-05-18T11:56:55.840Z,24.73
2023-05-18T11:57:55.806Z,24.72
2023-05-18T11:58:55.802Z,24.72
2023-05-18T11:59:55.771Z,24.69
2023-05-18T12:00:55.834Z,24.69
2023-05-18T12:01:55.754Z,24.68
2023-05-18T12:02:55.803Z,24.68
2023-05-18T12:03:55.790Z,24.66
2023-05-18T12:04:55.725Z,24.65
2023-05-18T12:05:55.681Z,24.65
2023-05-18T12:06:55.674Z,24.65
2023-05-18T12:07:55.663Z,24.64
2023-05-18T12:08:55.657Z,24.64
2023-05-18T12:09:55.638Z,24.65
2023-05-18T12:10:55.625Z,24.65
2023-05-18T12:11:55.618Z,24.62
2023-05-18T12:12:55.582Z,24.64
2023-05-18T12:13:55.593Z,24.66
2023-05-18T12:14:55.555Z,24.62
2023-05-18T12:15:57.480Z,24.62
2023-05-18T12:16:55.552Z,24.62
2023-05-18T12:17:55.547Z,24.61
2023-05-18T12:18:55.519Z,24.61
2023-05-18T12:19:55.462Z,24.61
2023-05-18T12:20:55.473Z,24.64
2023-05-18T12:21:58.355Z,24.62
2023-05-18T12:22:55.447Z,24.64
2023-05-18T12:23:55.409Z,24.61
2023-05-18T12:24:55.381Z,24.61
2023-05-18T12:25:55.367Z,24.61
2023-05-18T12:26:55.367Z,24.59
2023-05-18T12:27:55.346Z,24.58
2023-05-18T12:28:55.338Z,24.61
2023-05-18T12:29:55.320Z,24.61
2023-05-18T12:30:55.327Z,24.61
2023-05-18T12:31:55.270Z,24.61
2023-05-18T12:32:55.455Z,24.62
2023-05-18T12:33:56.890Z,24.59
2023-05-18T12:34:55.217Z,24.61
2023-05-18T12:35:55.221Z,24.61
2023-05-18T12:36:55.197Z,24.62
2023-05-18T12:37:55.175Z,24.59
2023-05-18T12:38:55.178Z,24.62
2023-05-18T12:39:55.156Z,24.62
2023-05-18T12:40:55.160Z,24.64
2023-05-18T12:41:55.127Z,24.64
2023-05-18T12:42:55.158Z,24.62
2023-05-18T12:43:55.119Z,24.62
2023-05-18T12:44:55.094Z,24.61
2023-05-18T12:45:55.200Z,24.61
2023-05-18T12:46:55.143Z,24.65
2023-05-18T12:47:55.469Z,24.65
2023-05-18T12:48:55.033Z,24.64
2023-05-18T12:49:55.075Z,24.64
2023-05-18T12:50:55.008Z,24.65
2023-05-18T12:51:55.000Z,24.64
2023-05-18T12:52:55.015Z,24.66